sensor_id;sensor_type;location;lat;lon;timestamp;P1;durP1;ratioP1;P2;durP2;ratioP2
62353;SDS011;48391;49.184;2.418;2023-09-08T06:08:33;1.15;;;1.15;;
62353;SDS011;48391;49.184;2.418;2023-09-08T06:10:59;0.90;;;0.90;;
62353;SDS011;48391;49.184;2.418;2023-09-08T06:13:25;0.90;;;0.90;;
62353;SDS011;48391;49.184;2.418;2023-09-08T06:15:51;0.95;;;0.95;;
62353;SDS011;48391;49.184;2.418;2023-09-08T06:18:17;1.23;;;1.13;;
62353;SDS011;48391;49.184;2.418;2023-09-08T06:20:44;0.90;;;0.90;;
62353;SDS011;48391;49.184;2.418;2023-09-08T06:23:10;0.77;;;0.75;;
62353;SDS011;48391;49.184;2.418;2023-09-08T06:25:36;1.05;;;0.95;;
62353;SDS011;48391;49.184;2.418;2023-09-08T06:28:03;1.10;;;1.10;;
62353;SDS011;48391;49.184;2.418;2023-09-08T06:30:29;0.77;;;0.77;;
62353;SDS011;48391;49.184;2.418;2023-09-08T06:32:55;0.77;;;0.77;;
62353;SDS011;48391;49.184;2.418;2023-09-08T06:35:21;0.75;;;0.75;;
62353;SDS011;48391;49.184;2.418;2023-09-08T06:37:47;0.60;;;0.60;;
62353;SDS011;48391;49.184;2.418;2023-09-08T06:40:13;0.57;;;0.57;;
62353;SDS011;48391;49.184;2.418;2023-09-08T06:42:39;0.73;;;0.73;;
62353;SDS011;48391;49.184;2.418;2023-09-08T06:45:05;1.00;;;1.00;;
62353;SDS011;48391;49.184;2.418;2023-09-08T06:47:31;1.38;;;1.30;;
62353;SDS011;48391;49.184;2.418;2023-09-08T06:49:57;1.25;;;1.25;;
62353;SDS011;48391;49.184;2.418;2023-09-08T06:52:23;1.35;;;1.25;;
62353;SDS011;48391;49.184;2.418;2023-09-08T06:54:49;1.75;;;1.65;;
62353;SDS011;48391;49.184;2.418;2023-09-08T06:57:17;1.45;;;1.45;;
62353;SDS011;48391;49.184;2.418;2023-09-08T06:59:44;1.83;;;1.73;;
62353;SDS011;48391;49.184;2.418;2023-09-08T07:02:11;2.05;;;1.95;;
62353;SDS011;48391;49.184;2.418;2023-09-08T07:04:39;1.77;;;1.60;;
62353;SDS011;48391;49.184;2.418;2023-09-08T07:07:05;2.45;;;1.70;;
62353;SDS011;48391;49.184;2.418;2023-09-08T07:09:34;1.60;;;1.50;;
62353;SDS011;48391;49.184;2.418;2023-09-08T07:12:01;1.67;;;1.27;;
62353;SDS011;48391;49.184;2.418;2023-09-08T07:14:27;1.55;;;1.45;;
62353;SDS011;48391;49.184;2.418;2023-09-08T07:16:53;1.50;;;1.40;;
62353;SDS011;48391;49.184;2.418;2023-09-08T07:19:19;2.00;;;1.83;;
62353;SDS011;48391;49.184;2.418;2023-09-08T07:21:45;1.27;;;1.27;;
62353;SDS011;48391;49.184;2.418;2023-09-08T07:24:11;2.22;;;2.03;;
62353;SDS011;48391;49.184;2.418;2023-09-08T07:26:37;1.55;;;1.45;;
62353;SDS011;48391;49.184;2.418;2023-09-08T07:29:03;1.17;;;1.13;;
62353;SDS011;48391;49.184;2.418;2023-09-08T07:31:29;1.00;;;1.00;;
62353;SDS011;48391;49.184;2.418;2023-09-08T07:33:55;1.23;;;1.23;;
62353;SDS011;48391;49.184;2.418;2023-09-08T07:36:21;1.17;;;1.17;;
62353;SDS011;48391;49.184;2.418;2023-09-08T07:38:47;1.10;;;1.10;;
62353;SDS011;48391;49.184;2.418;2023-09-08T07:41:13;0.88;;;0.88;;
62353;SDS011;48391;49.184;2.418;2023-09-08T07:43:40;1.02;;;1.02;;
62353;SDS011;48391;49.184;2.418;2023-09-08T07:46:06;1.98;;;1.20;;
62353;SDS011;48391;49.184;2.418;2023-09-08T07:48:32;1.60;;;1.50;;
62353;SDS011;48391;49.184;2.418;2023-09-08T07:50:59;1.65;;;1.55;;
62353;SDS011;48391;49.184;2.418;2023-09-08T07:53:25;1.60;;;1.52;;
62353;SDS011;48391;49.184;2.418;2023-09-08T07:55:51;3.20;;;2.10;;
62353;SDS011;48391;49.184;2.418;2023-09-08T07:58:18;2.85;;;2.30;;
62353;SDS011;48391;49.184;2.418;2023-09-08T08:00:44;2.00;;;1.90;;
62353;SDS011;48391;49.184;2.418;2023-09-08T08:03:10;2.55;;;2.45;;
62353;SDS011;48391;49.184;2.418;2023-09-08T08:05:36;3.90;;;2.55;;
62353;SDS011;48391;49.184;2.418;2023-09-08T08:08:02;2.25;;;2.15;;
62353;SDS011;48391;49.184;2.418;2023-09-08T08:10:28;1.85;;;1.42;;
62353;SDS011;48391;49.184;2.418;2023-09-08T08:12:55;1.38;;;1.27;;
62353;SDS011;48391;49.184;2.418;2023-09-08T08:15:22;1.25;;;1.15;;
62353;SDS011;48391;49.184;2.418;2023-09-08T08:17:48;1.27;;;1.27;;
62353;SDS011;48391;49.184;2.418;2023-09-08T08:20:14;1.45;;;1.35;;
62353;SDS011;48391;49.184;2.418;2023-09-08T08:22:44;1.55;;;1.45;;
62353;SDS011;48391;49.184;2.418;2023-09-08T08:25:10;1.73;;;1.30;;
62353;SDS011;48391;49.184;2.418;2023-09-08T08:27:37;1.55;;;1.40;;
62353;SDS011;48391;49.184;2.418;2023-09-08T08:30:03;0.98;;;0.98;;
62353;SDS011;48391;49.184;2.418;2023-09-08T08:32:30;2.35;;;1.50;;
62353;SDS011;48391;49.184;2.418;2023-09-08T08:34:56;1.20;;;1.10;;
62353;SDS011;48391;49.184;2.418;2023-09-08T08:37:22;1.50;;;1.50;;
62353;SDS011;48391;49.184;2.418;2023-09-08T08:39:48;2.15;;;1.92;;
62353;SDS011;48391;49.184;2.418;2023-09-08T08:42:14;1.33;;;1.33;;
62353;SDS011;48391;49.184;2.418;2023-09-08T08:44:40;1.35;;;1.35;;
62353;SDS011;48391;49.184;2.418;2023-09-08T08:47:07;1.10;;;1.02;;
62353;SDS011;48391;49.184;2.418;2023-09-08T08:49:43;0.43;;;0.43;;
62353;SDS011;48391;49.184;2.418;2023-09-08T08:52:13;0.80;;;0.80;;
62353;SDS011;48391;49.184;2.418;2023-09-08T08:54:40;0.75;;;0.75;;
62353;SDS011;48391;49.184;2.418;2023-09-08T08:57:07;0.50;;;0.50;;
62353;SDS011;48391;49.184;2.418;2023-09-08T08:59:34;0.63;;;0.63;;
62353;SDS011;48391;49.184;2.418;2023-09-08T09:02:00;0.70;;;0.70;;
62353;SDS011;48391;49.184;2.418;2023-09-08T09:04:28;1.70;;;0.50;;
62353;SDS011;48391;49.184;2.418;2023-09-08T09:06:55;0.43;;;0.35;;
62353;SDS011;48391;49.184;2.418;2023-09-08T09:09:21;0.68;;;0.68;;
62353;SDS011;48391;49.184;2.418;2023-09-08T09:11:50;0.77;;;0.60;;
62353;SDS011;48391;49.184;2.418;2023-09-08T09:14:16;1.42;;;0.90;;
62353;SDS011;48391;49.184;2.418;2023-09-08T09:16:44;0.50;;;0.50;;
62353;SDS011;48391;49.184;2.418;2023-09-08T09:19:10;0.70;;;0.70;;
62353;SDS011;48391;49.184;2.418;2023-09-08T09:21:46;0.88;;;0.88;;
62353;SDS011;48391;49.184;2.418;2023-09-08T09:27:17;0.82;;;0.82;;
62353;SDS011;48391;49.184;2.418;2023-09-08T09:29:46;0.40;;;0.40;;
62353;SDS011;48391;49.184;2.418;2023-09-08T09:32:13;2.95;;;0.75;;
62353;SDS011;48391;49.184;2.418;2023-09-08T09:34:49;0.65;;;0.65;;
62353;SDS011;48391;49.184;2.418;2023-09-08T09:37:15;0.60;;;0.60;;
62353;SDS011;48391;49.184;2.418;2023-09-08T09:39:41;0.80;;;0.60;;
62353;SDS011;48391;49.184;2.418;2023-09-08T09:42:07;0.80;;;0.80;;
62353;SDS011;48391;49.184;2.418;2023-09-08T09:44:33;1.48;;;1.20;;
62353;SDS011;48391;49.184;2.418;2023-09-08T09:47:00;0.50;;;0.50;;
62353;SDS011;48391;49.184;2.418;2023-09-08T09:49:26;0.60;;;0.60;;
62353;SDS011;48391;49.184;2.418;2023-09-08T09:51:56;2.17;;;1.00;;
62353;SDS011;48391;49.184;2.418;2023-09-08T09:54:24;2.50;;;1.10;;
62353;SDS011;48391;49.184;2.418;2023-09-08T09:56:50;1.10;;;0.70;;
62353;SDS011;48391;49.184;2.418;2023-09-08T09:59:17;1.13;;;0.82;;
62353;SDS011;48391;49.184;2.418;2023-09-08T10:01:43;1.60;;;1.27;;
62353;SDS011;48391;49.184;2.418;2023-09-08T10:04:09;0.65;;;0.65;;
62353;SDS011;48391;49.184;2.418;2023-09-08T10:06:37;1.83;;;0.57;;
62353;SDS011;48391;49.184;2.418;2023-09-08T10:09:04;0.70;;;0.70;;
62353;SDS011;48391;49.184;2.418;2023-09-08T10:13:59;1.25;;;1.10;;
62353;SDS011;48391;49.184;2.418;2023-09-08T10:16:26;0.75;;;0.45;;
62353;SDS011;48391;49.184;2.418;2023-09-08T10:18:53;0.95;;;0.90;;
62353;SDS011;48391;49.184;2.418;2023-09-08T10:21:20;0.73;;;0.52;;
62353;SDS011;48391;49.184;2.418;2023-09-08T10:23:49;0.70;;;0.70;;
62353;SDS011;48391;49.184;2.418;2023-09-08T10:26:18;0.70;;;0.70;;
62353;SDS011;48391;49.184;2.418;2023-09-08T10:28:46;0.50;;;0.50;;
62353;SDS011;48391;49.184;2.418;2023-09-08T10:31:13;1.17;;;0.98;;
62353;SDS011;48391;49.184;2.418;2023-09-08T10:33:39;0.82;;;0.82;;
62353;SDS011;48391;49.184;2.418;2023-09-08T10:36:05;1.10;;;1.00;;
62353;SDS011;48391;49.184;2.418;2023-09-08T10:38:33;1.17;;;0.85;;
62353;SDS011;48391;49.184;2.418;2023-09-08T10:43:44;0.70;;;0.63;;
62353;SDS011;48391;49.184;2.418;2023-09-08T10:46:10;0.88;;;0.88;;
62353;SDS011;48391;49.184;2.418;2023-09-08T10:48:41;0.47;;;0.47;;
62353;SDS011;48391;49.184;2.418;2023-09-08T10:51:12;1.38;;;0.60;;
62353;SDS011;48391;49.184;2.418;2023-09-08T10:53:38;3.15;;;1.00;;
62353;SDS011;48391;49.184;2.418;2023-09-08T10:56:05;2.55;;;1.25;;
62353;SDS011;48391;49.184;2.418;2023-09-08T10:58:31;1.13;;;1.02;;
62353;SDS011;48391;49.184;2.418;2023-09-08T11:01:01;1.38;;;0.85;;
62353;SDS011;48391;49.184;2.418;2023-09-08T11:06:01;0.88;;;0.88;;
62353;SDS011;48391;49.184;2.418;2023-09-08T11:08:28;0.88;;;0.70;;
62353;SDS011;48391;49.184;2.418;2023-09-08T11:10:55;1.02;;;0.90;;
62353;SDS011;48391;49.184;2.418;2023-09-08T11:13:21;0.55;;;0.55;;
62353;SDS011;48391;49.184;2.418;2023-09-08T11:15:47;0.50;;;0.50;;
62353;SDS011;48391;49.184;2.418;2023-09-08T11:18:13;2.05;;;0.80;;
62353;SDS011;48391;49.184;2.418;2023-09-08T11:20:39;2.20;;;0.63;;
62353;SDS011;48391;49.184;2.418;2023-09-08T11:23:05;0.95;;;0.75;;
62353;SDS011;48391;49.184;2.418;2023-09-08T11:25:31;0.90;;;0.70;;
62353;SDS011;48391;49.184;2.418;2023-09-08T11:27:58;0.98;;;0.98;;
62353;SDS011;48391;49.184;2.418;2023-09-08T11:30:25;2.78;;;1.30;;
62353;SDS011;48391;49.184;2.418;2023-09-08T11:32:52;1.08;;;0.75;;
62353;SDS011;48391;49.184;2.418;2023-09-08T11:35:18;3.05;;;0.80;;
62353;SDS011;48391;49.184;2.418;2023-09-08T11:37:46;1.30;;;1.20;;
62353;SDS011;48391;49.184;2.418;2023-09-08T11:40:12;1.60;;;1.02;;
62353;SDS011;48391;49.184;2.418;2023-09-08T11:42:42;0.80;;;0.80;;
62353;SDS011;48391;49.184;2.418;2023-09-08T11:45:15;3.13;;;1.20;;
62353;SDS011;48391;49.184;2.418;2023-09-08T11:47:52;1.55;;;0.77;;
62353;SDS011;48391;49.184;2.418;2023-09-08T11:50:18;0.88;;;0.88;;
62353;SDS011;48391;49.184;2.418;2023-09-08T11:52:48;2.63;;;0.95;;
62353;SDS011;48391;49.184;2.418;2023-09-08T11:55:14;0.68;;;0.68;;
62353;SDS011;48391;49.184;2.418;2023-09-08T11:57:41;1.38;;;0.93;;
62353;SDS011;48391;49.184;2.418;2023-09-08T12:00:09;1.48;;;0.70;;
62353;SDS011;48391;49.184;2.418;2023-09-08T12:02:39;1.20;;;0.70;;
62353;SDS011;48391;49.184;2.418;2023-09-08T12:05:05;1.13;;;1.13;;
62353;SDS011;48391;49.184;2.418;2023-09-08T12:07:37;1.60;;;1.00;;
62353;SDS011;48391;49.184;2.418;2023-09-08T12:10:09;1.08;;;0.90;;
62353;SDS011;48391;49.184;2.418;2023-09-08T12:13:09;1.27;;;1.00;;
62353;SDS011;48391;49.184;2.418;2023-09-08T12:15:38;2.17;;;1.15;;
62353;SDS011;48391;49.184;2.418;2023-09-08T12:18:05;0.60;;;0.60;;
62353;SDS011;48391;49.184;2.418;2023-09-08T12:20:31;0.77;;;0.77;;
62353;SDS011;48391;49.184;2.418;2023-09-08T12:23:02;1.75;;;1.13;;
62353;SDS011;48391;49.184;2.418;2023-09-08T12:25:28;1.80;;;0.77;;
62353;SDS011;48391;49.184;2.418;2023-09-08T12:27:59;1.48;;;0.95;;
62353;SDS011;48391;49.184;2.418;2023-09-08T12:30:25;1.30;;;0.85;;
62353;SDS011;48391;49.184;2.418;2023-09-08T12:33:01;2.05;;;1.17;;
62353;SDS011;48391;49.184;2.418;2023-09-08T12:35:27;1.48;;;0.90;;
62353;SDS011;48391;49.184;2.418;2023-09-08T12:37:57;0.80;;;0.80;;
62353;SDS011;48391;49.184;2.418;2023-09-08T12:40:25;1.02;;;1.02;;
62353;SDS011;48391;49.184;2.418;2023-09-08T12:42:51;1.05;;;0.90;;
62353;SDS011;48391;49.184;2.418;2023-09-08T12:45:18;2.45;;;1.55;;
62353;SDS011;48391;49.184;2.418;2023-09-08T12:47:44;0.73;;;0.73;;
62353;SDS011;48391;49.184;2.418;2023-09-08T12:50:10;1.27;;;1.13;;
62353;SDS011;48391;49.184;2.418;2023-09-08T12:52:38;1.40;;;0.80;;
62353;SDS011;48391;49.184;2.418;2023-09-08T12:55:04;0.82;;;0.82;;
62353;SDS011;48391;49.184;2.418;2023-09-08T12:57:30;0.85;;;0.85;;
62353;SDS011;48391;49.184;2.418;2023-09-08T12:59:56;0.70;;;0.70;;
62353;SDS011;48391;49.184;2.418;2023-09-08T13:02:22;1.55;;;0.57;;
62353;SDS011;48391;49.184;2.418;2023-09-08T13:04:48;0.80;;;0.80;;
62353;SDS011;48391;49.184;2.418;2023-09-08T13:07:15;0.63;;;0.63;;
62353;SDS011;48391;49.184;2.418;2023-09-08T13:09:41;1.23;;;1.23;;
62353;SDS011;48391;49.184;2.418;2023-09-08T13:12:07;1.27;;;0.70;;
62353;SDS011;48391;49.184;2.418;2023-09-08T13:14:34;0.88;;;0.88;;
62353;SDS011;48391;49.184;2.418;2023-09-08T13:17:00;3.22;;;1.20;;
62353;SDS011;48391;49.184;2.418;2023-09-08T13:19:26;1.38;;;1.00;;
62353;SDS011;48391;49.184;2.418;2023-09-08T13:21:52;1.23;;;1.23;;
62353;SDS011;48391;49.184;2.418;2023-09-08T13:24:18;1.85;;;1.08;;
62353;SDS011;48391;49.184;2.418;2023-09-08T13:26:46;1.03;;;0.80;;
62353;SDS011;48391;49.184;2.418;2023-09-08T13:29:12;1.30;;;1.08;;
62353;SDS011;48391;49.184;2.418;2023-09-08T13:31:39;1.08;;;1.08;;
62353;SDS011;48391;49.184;2.418;2023-09-08T13:34:04;1.70;;;1.60;;
62353;SDS011;48391;49.184;2.418;2023-09-08T13:36:31;1.75;;;1.17;;
62353;SDS011;48391;49.184;2.418;2023-09-08T13:38:57;0.80;;;0.80;;
62353;SDS011;48391;49.184;2.418;2023-09-08T13:41:23;1.33;;;1.23;;
62353;SDS011;48391;49.184;2.418;2023-09-08T13:43:49;1.05;;;1.05;;
62353;SDS011;48391;49.184;2.418;2023-09-08T13:46:16;1.52;;;1.20;;
62353;SDS011;48391;49.184;2.418;2023-09-08T13:48:42;2.15;;;1.25;;
62353;SDS011;48391;49.184;2.418;2023-09-08T13:51:08;0.95;;;0.85;;
62353;SDS011;48391;49.184;2.418;2023-09-08T13:53:34;1.10;;;1.02;;
62353;SDS011;48391;49.184;2.418;2023-09-08T13:56:00;1.35;;;0.95;;
62353;SDS011;48391;49.184;2.418;2023-09-08T13:58:27;0.88;;;0.80;;
62353;SDS011;48391;49.184;2.418;2023-09-08T14:00:53;0.95;;;0.95;;
62353;SDS011;48391;49.184;2.418;2023-09-08T14:03:19;1.60;;;1.30;;
62353;SDS011;48391;49.184;2.418;2023-09-08T14:05:46;2.53;;;1.30;;
62353;SDS011;48391;49.184;2.418;2023-09-08T14:10:46;1.20;;;1.10;;
62353;SDS011;48391;49.184;2.418;2023-09-08T14:13:12;2.40;;;1.45;;
62353;SDS011;48391;49.184;2.418;2023-09-08T14:15:38;2.58;;;2.03;;
62353;SDS011;48391;49.184;2.418;2023-09-08T14:18:04;1.67;;;1.45;;
62353;SDS011;48391;49.184;2.418;2023-09-08T14:20:30;1.55;;;1.42;;
62353;SDS011;48391;49.184;2.418;2023-09-08T14:22:56;0.90;;;0.90;;
62353;SDS011;48391;49.184;2.418;2023-09-08T14:25:22;1.00;;;1.00;;
62353;SDS011;48391;49.184;2.418;2023-09-08T14:27:48;1.48;;;1.45;;
62353;SDS011;48391;49.184;2.418;2023-09-08T14:30:15;1.40;;;1.30;;
62353;SDS011;48391;49.184;2.418;2023-09-08T14:32:41;2.15;;;1.38;;
62353;SDS011;48391;49.184;2.418;2023-09-08T14:35:07;0.90;;;0.90;;
62353;SDS011;48391;49.184;2.418;2023-09-08T14:37:33;1.02;;;1.02;;
62353;SDS011;48391;49.184;2.418;2023-09-08T14:39:59;1.73;;;1.23;;
62353;SDS011;48391;49.184;2.418;2023-09-08T14:42:25;1.15;;;1.15;;
62353;SDS011;48391;49.184;2.418;2023-09-08T14:44:51;1.00;;;1.00;;
62353;SDS011;48391;49.184;2.418;2023-09-08T14:47:17;1.38;;;1.27;;
62353;SDS011;48391;49.184;2.418;2023-09-08T14:49:43;1.42;;;1.33;;
62353;SDS011;48391;49.184;2.418;2023-09-08T14:52:09;1.38;;;1.30;;
62353;SDS011;48391;49.184;2.418;2023-09-08T14:54:35;1.98;;;1.50;;
62353;SDS011;48391;49.184;2.418;2023-09-08T14:57:01;1.20;;;1.08;;
62353;SDS011;48391;49.184;2.418;2023-09-08T14:59:27;1.20;;;1.17;;
62353;SDS011;48391;49.184;2.418;2023-09-08T15:01:53;1.23;;;1.20;;
62353;SDS011;48391;49.184;2.418;2023-09-08T15:04:19;1.10;;;1.02;;
62353;SDS011;48391;49.184;2.418;2023-09-08T15:06:45;0.82;;;0.82;;
62353;SDS011;48391;49.184;2.418;2023-09-08T15:09:12;1.05;;;1.05;;
62353;SDS011;48391;49.184;2.418;2023-09-08T15:11:38;1.27;;;1.20;;
62353;SDS011;48391;49.184;2.418;2023-09-08T15:14:04;2.40;;;1.70;;
62353;SDS011;48391;49.184;2.418;2023-09-08T15:16:30;1.15;;;1.08;;
62353;SDS011;48391;49.184;2.418;2023-09-08T15:18:56;1.38;;;1.35;;
62353;SDS011;48391;49.184;2.418;2023-09-08T15:21:23;1.00;;;0.93;;
62353;SDS011;48391;49.184;2.418;2023-09-08T15:23:58;1.38;;;1.38;;
62353;SDS011;48391;49.184;2.418;2023-09-08T15:26:28;1.13;;;1.13;;
62353;SDS011;48391;49.184;2.418;2023-09-08T15:28:54;1.42;;;1.20;;
62353;SDS011;48391;49.184;2.418;2023-09-08T15:31:20;1.23;;;1.15;;
62353;SDS011;48391;49.184;2.418;2023-09-08T15:33:46;1.45;;;1.42;;
62353;SDS011;48391;49.184;2.418;2023-09-08T15:36:12;1.42;;;1.42;;
62353;SDS011;48391;49.184;2.418;2023-09-08T15:38:39;1.52;;;1.30;;
62353;SDS011;48391;49.184;2.418;2023-09-08T15:43:35;1.10;;;0.80;;
62353;SDS011;48391;49.184;2.418;2023-09-08T15:46:01;0.90;;;0.90;;
62353;SDS011;48391;49.184;2.418;2023-09-08T15:48:27;1.02;;;0.93;;
62353;SDS011;48391;49.184;2.418;2023-09-08T15:50:53;1.05;;;0.90;;
62353;SDS011;48391;49.184;2.418;2023-09-08T15:53:19;1.88;;;1.20;;
62353;SDS011;48391;49.184;2.418;2023-09-08T15:55:45;1.65;;;1.48;;
62353;SDS011;48391;49.184;2.418;2023-09-08T15:58:11;1.42;;;1.27;;
62353;SDS011;48391;49.184;2.418;2023-09-08T16:00:38;1.17;;;1.08;;
62353;SDS011;48391;49.184;2.418;2023-09-08T16:03:04;1.25;;;1.08;;
62353;SDS011;48391;49.184;2.418;2023-09-08T16:05:30;1.10;;;1.10;;
62353;SDS011;48391;49.184;2.418;2023-09-08T16:07:56;1.10;;;1.05;;
62353;SDS011;48391;49.184;2.418;2023-09-08T16:10:22;1.98;;;1.13;;
62353;SDS011;48391;49.184;2.418;2023-09-08T16:15:17;1.55;;;1.45;;
62353;SDS011;48391;49.184;2.418;2023-09-08T16:17:43;1.00;;;0.90;;
62353;SDS011;48391;49.184;2.418;2023-09-08T16:20:09;2.20;;;1.15;;
62353;SDS011;48391;49.184;2.418;2023-09-08T16:22:35;1.23;;;0.98;;
62353;SDS011;48391;49.184;2.418;2023-09-08T16:25:01;1.52;;;1.42;;
62353;SDS011;48391;49.184;2.418;2023-09-08T16:27:28;0.98;;;0.80;;
62353;SDS011;48391;49.184;2.418;2023-09-08T16:29:55;0.80;;;0.80;;
62353;SDS011;48391;49.184;2.418;2023-09-08T16:32:21;1.20;;;1.10;;
62353;SDS011;48391;49.184;2.418;2023-09-08T16:34:49;0.88;;;0.88;;
62353;SDS011;48391;49.184;2.418;2023-09-08T16:37:15;1.30;;;0.68;;
62353;SDS011;48391;49.184;2.418;2023-09-08T16:39:41;1.15;;;1.15;;
62353;SDS011;48391;49.184;2.418;2023-09-08T16:42:07;1.00;;;1.00;;
62353;SDS011;48391;49.184;2.418;2023-09-08T16:44:33;1.58;;;0.93;;
62353;SDS011;48391;49.184;2.418;2023-09-08T16:46:59;0.90;;;0.90;;
62353;SDS011;48391;49.184;2.418;2023-09-08T16:49:25;1.02;;;0.93;;
62353;SDS011;48391;49.184;2.418;2023-09-08T16:51:51;1.15;;;1.15;;
62353;SDS011;48391;49.184;2.418;2023-09-08T16:54:21;0.85;;;0.85;;
62353;SDS011;48391;49.184;2.418;2023-09-08T16:56:47;1.40;;;1.30;;
62353;SDS011;48391;49.184;2.418;2023-09-08T16:59:13;1.23;;;1.10;;
62353;SDS011;48391;49.184;2.418;2023-09-08T17:01:39;1.67;;;1.25;;
62353;SDS011;48391;49.184;2.418;2023-09-08T17:04:05;1.85;;;1.25;;
62353;SDS011;48391;49.184;2.418;2023-09-08T17:06:34;0.90;;;0.90;;
62353;SDS011;48391;49.184;2.418;2023-09-08T17:09:00;1.20;;;1.10;;
62353;SDS011;48391;49.184;2.418;2023-09-08T17:11:26;1.20;;;1.10;;
62353;SDS011;48391;49.184;2.418;2023-09-08T17:13:52;1.30;;;1.30;;
62353;SDS011;48391;49.184;2.418;2023-09-08T17:16:18;0.95;;;0.95;;
62353;SDS011;48391;49.184;2.418;2023-09-08T17:18:44;0.63;;;0.63;;
62353;SDS011;48391;49.184;2.418;2023-09-08T17:21:10;0.80;;;0.80;;
62353;SDS011;48391;49.184;2.418;2023-09-08T17:23:36;0.73;;;0.73;;
62353;SDS011;48391;49.184;2.418;2023-09-08T17:26:02;1.02;;;0.77;;
62353;SDS011;48391;49.184;2.418;2023-09-08T17:28:28;1.08;;;1.05;;
62353;SDS011;48391;49.184;2.418;2023-09-08T17:30:54;0.77;;;0.77;;
62353;SDS011;48391;49.184;2.418;2023-09-08T17:33:20;0.82;;;0.82;;
62353;SDS011;48391;49.184;2.418;2023-09-08T17:35:46;2.20;;;1.23;;
62353;SDS011;48391;49.184;2.418;2023-09-08T17:38:14;1.23;;;1.05;;
62353;SDS011;48391;49.184;2.418;2023-09-08T17:40:40;1.15;;;1.05;;
62353;SDS011;48391;49.184;2.418;2023-09-08T17:43:06;1.98;;;1.50;;
62353;SDS011;48391;49.184;2.418;2023-09-08T17:45:34;1.05;;;0.75;;
62353;SDS011;48391;49.184;2.418;2023-09-08T17:48:05;1.85;;;1.33;;
62353;SDS011;48391;49.184;2.418;2023-09-08T17:50:38;0.80;;;0.80;;
62353;SDS011;48391;49.184;2.418;2023-09-08T17:53:04;1.95;;;1.05;;
62353;SDS011;48391;49.184;2.418;2023-09-08T17:55:33;1.13;;;1.02;;
62353;SDS011;48391;49.184;2.418;2023-09-08T17:58:03;1.00;;;1.00;;
62353;SDS011;48391;49.184;2.418;2023-09-08T18:02:57;1.65;;;1.00;;
62353;SDS011;48391;49.184;2.418;2023-09-08T18:05:25;0.68;;;0.52;;
62353;SDS011;48391;49.184;2.418;2023-09-08T18:07:57;1.35;;;0.85;;
62353;SDS011;48391;49.184;2.418;2023-09-08T18:10:28;1.80;;;1.30;;
62353;SDS011;48391;49.184;2.418;2023-09-08T18:12:59;1.40;;;1.00;;
62353;SDS011;48391;49.184;2.418;2023-09-08T18:15:28;2.25;;;1.30;;
62353;SDS011;48391;49.184;2.418;2023-09-08T18:17:54;1.65;;;1.15;;
62353;SDS011;48391;49.184;2.418;2023-09-08T18:20:20;3.65;;;1.50;;
62353;SDS011;48391;49.184;2.418;2023-09-08T18:22:46;1.02;;;0.98;;
62353;SDS011;48391;49.184;2.418;2023-09-08T18:25:12;1.17;;;1.08;;
62353;SDS011;48391;49.184;2.418;2023-09-08T18:27:38;1.00;;;0.90;;
62353;SDS011;48391;49.184;2.418;2023-09-08T18:30:04;0.98;;;0.93;;
62353;SDS011;48391;49.184;2.418;2023-09-08T18:32:30;1.60;;;1.05;;
62353;SDS011;48391;49.184;2.418;2023-09-08T18:34:58;1.00;;;1.00;;
62353;SDS011;48391;49.184;2.418;2023-09-08T18:37:24;1.02;;;1.02;;
62353;SDS011;48391;49.184;2.418;2023-09-08T18:39:50;1.45;;;1.35;;
62353;SDS011;48391;49.184;2.418;2023-09-08T18:42:16;0.85;;;0.80;;
62353;SDS011;48391;49.184;2.418;2023-09-08T18:44:42;1.63;;;1.33;;
62353;SDS011;48391;49.184;2.418;2023-09-08T18:47:09;1.70;;;1.50;;
62353;SDS011;48391;49.184;2.418;2023-09-08T18:49:35;1.88;;;1.67;;
62353;SDS011;48391;49.184;2.418;2023-09-08T18:52:01;2.55;;;1.75;;
62353;SDS011;48391;49.184;2.418;2023-09-08T18:54:27;1.67;;;1.55;;
62353;SDS011;48391;49.184;2.418;2023-09-08T18:56:54;1.23;;;1.13;;
62353;SDS011;48391;49.184;2.418;2023-09-08T18:59:21;1.55;;;1.40;;
62353;SDS011;48391;49.184;2.418;2023-09-08T19:01:47;1.88;;;1.77;;
62353;SDS011;48391;49.184;2.418;2023-09-08T19:04:13;1.95;;;1.40;;
62353;SDS011;48391;49.184;2.418;2023-09-08T19:06:39;1.83;;;1.50;;
62353;SDS011;48391;49.184;2.418;2023-09-08T19:09:07;2.97;;;1.95;;
62353;SDS011;48391;49.184;2.418;2023-09-08T19:11:33;1.27;;;1.17;;
62353;SDS011;48391;49.184;2.418;2023-09-08T19:13:59;2.58;;;1.38;;
62353;SDS011;48391;49.184;2.418;2023-09-08T19:16:25;1.25;;;1.20;;
62353;SDS011;48391;49.184;2.418;2023-09-08T19:18:52;1.60;;;1.00;;
62353;SDS011;48391;49.184;2.418;2023-09-08T19:21:18;1.35;;;1.13;;
62353;SDS011;48391;49.184;2.418;2023-09-08T19:23:44;1.20;;;1.20;;
62353;SDS011;48391;49.184;2.418;2023-09-08T19:26:10;0.60;;;0.60;;
62353;SDS011;48391;49.184;2.418;2023-09-08T19:28:36;1.20;;;1.10;;
62353;SDS011;48391;49.184;2.418;2023-09-08T19:31:02;2.05;;;1.30;;
62353;SDS011;48391;49.184;2.418;2023-09-08T19:33:28;2.88;;;1.02;;
62353;SDS011;48391;49.184;2.418;2023-09-08T19:35:54;2.50;;;2.20;;
62353;SDS011;48391;49.184;2.418;2023-09-08T19:38:20;1.85;;;1.73;;
62353;SDS011;48391;49.184;2.418;2023-09-08T19:40:46;1.73;;;1.30;;
62353;SDS011;48391;49.184;2.418;2023-09-08T19:43:12;1.23;;;1.23;;
62353;SDS011;48391;49.184;2.418;2023-09-08T19:45:39;3.50;;;1.88;;
62353;SDS011;48391;49.184;2.418;2023-09-08T19:48:05;2.47;;;1.60;;
62353;SDS011;48391;49.184;2.418;2023-09-08T19:50:31;1.58;;;1.17;;
62353;SDS011;48391;49.184;2.418;2023-09-08T19:52:57;1.33;;;1.20;;
62353;SDS011;48391;49.184;2.418;2023-09-08T19:55:23;1.48;;;1.38;;
62353;SDS011;48391;49.184;2.418;2023-09-08T19:57:49;3.17;;;2.05;;
62353;SDS011;48391;49.184;2.418;2023-09-08T20:00:15;1.20;;;1.13;;
62353;SDS011;48391;49.184;2.418;2023-09-08T20:02:42;2.75;;;1.70;;
62353;SDS011;48391;49.184;2.418;2023-09-08T20:05:08;3.28;;;2.10;;
62353;SDS011;48391;49.184;2.418;2023-09-08T20:07:35;2.00;;;1.80;;
62353;SDS011;48391;49.184;2.418;2023-09-08T20:10:03;2.20;;;1.98;;
62353;SDS011;48391;49.184;2.418;2023-09-08T20:12:29;2.97;;;2.25;;
62353;SDS011;48391;49.184;2.418;2023-09-08T20:14:55;5.40;;;1.70;;
62353;SDS011;48391;49.184;2.418;2023-09-08T20:17:21;1.73;;;1.63;;
62353;SDS011;48391;49.184;2.418;2023-09-08T20:19:47;1.83;;;1.70;;
62353;SDS011;48391;49.184;2.418;2023-09-08T20:22:13;2.38;;;1.52;;
62353;SDS011;48391;49.184;2.418;2023-09-08T20:24:39;2.67;;;1.95;;
62353;SDS011;48391;49.184;2.418;2023-09-08T20:27:07;1.95;;;1.55;;
62353;SDS011;48391;49.184;2.418;2023-09-08T20:29:35;1.65;;;1.55;;
62353;SDS011;48391;49.184;2.418;2023-09-08T20:32:02;3.00;;;1.90;;
62353;SDS011;48391;49.184;2.418;2023-09-08T20:34:28;3.10;;;1.88;;
62353;SDS011;48391;49.184;2.418;2023-09-08T20:36:54;2.70;;;1.83;;
62353;SDS011;48391;49.184;2.418;2023-09-08T20:39:20;1.77;;;1.63;;
62353;SDS011;48391;49.184;2.418;2023-09-08T20:41:46;0.90;;;0.90;;
62353;SDS011;48391;49.184;2.418;2023-09-08T20:44:13;1.50;;;1.50;;
62353;SDS011;48391;49.184;2.418;2023-09-08T20:46:40;3.55;;;2.20;;
62353;SDS011;48391;49.184;2.418;2023-09-08T20:49:09;2.45;;;1.83;;
62353;SDS011;48391;49.184;2.418;2023-09-08T20:51:35;2.78;;;1.73;;
62353;SDS011;48391;49.184;2.418;2023-09-08T20:54:01;3.13;;;1.60;;
62353;SDS011;48391;49.184;2.418;2023-09-08T20:56:28;2.20;;;1.88;;
62353;SDS011;48391;49.184;2.418;2023-09-08T20:58:54;1.52;;;1.27;;
62353;SDS011;48391;49.184;2.418;2023-09-08T21:01:20;1.30;;;1.20;;
62353;SDS011;48391;49.184;2.418;2023-09-08T21:03:46;1.02;;;0.93;;
62353;SDS011;48391;49.184;2.418;2023-09-08T21:06:12;0.68;;;0.68;;
62353;SDS011;48391;49.184;2.418;2023-09-08T21:08:41;0.90;;;0.63;;
62353;SDS011;48391;49.184;2.418;2023-09-08T21:11:07;0.82;;;0.70;;
62353;SDS011;48391;49.184;2.418;2023-09-08T21:13:33;1.08;;;1.08;;